sensor_id;sensor_type;location;lat;lon;timestamp;pressure;altitude;pressure_sealevel;temperature;humidity
34243;BME280;20504;43.214;27.920;2023-09-19T00:02:22;100141.84;;;23.10;100.00
34243;BME280;20504;43.214;27.920;2023-09-19T00:04:47;100105.22;;;23.07;100.00
34243;BME280;20504;43.214;27.920;2023-09-19T00:07:14;100014.78;;;22.95;100.00
34243;BME280;20504;43.214;27.920;2023-09-19T00:09:42;100125.03;;;23.29;100.00
34243;BME280;20504;43.214;27.920;2023-09-19T00:12:09;100128.81;;;23.35;100.00
34243;BME280;20504;43.214;27.920;2023-09-19T00:14:35;100075.03;;;22.89;100.00
34243;BME280;20504;43.214;27.920;2023-09-19T00:17:22;100135.28;;;23.19;100.00
34243;BME280;20504;43.214;27.920;2023-09-19T00:19:47;100135.88;;;23.14;100.00
34243;BME280;20504;43.214;27.920;2023-09-19T00:22:17;100097.88;;;23.22;100.00
34243;BME280;20504;43.214;27.920;2023-09-19T00:24:46;100099.94;;;23.20;100.00
34243;BME280;20504;43.214;27.920;2023-09-19T00:27:11;100115.44;;;23.26;100.00
34243;BME280;20504;43.214;27.920;2023-09-19T00:32:02;100146.22;;;23.25;100.00
34243;BME280;20504;43.214;27.920;2023-09-19T00:34:30;100165.06;;;23.04;100.00
34243;BME280;20504;43.214;27.920;2023-09-19T00:36:59;100154.81;;;23.00;100.00
34243;BME280;20504;43.214;27.920;2023-09-19T00:39:24;100115.59;;;22.89;100.00
34243;BME280;20504;43.214;27.920;2023-09-19T00:41:51;100125.91;;;23.00;100.00
34243;BME280;20504;43.214;27.920;2023-09-19T00:44:16;100115.75;;;22.73;100.00
34243;BME280;20504;43.214;27.920;2023-09-19T00:46:54;100105.88;;;22.50;100.00
34243;BME280;20504;43.214;27.920;2023-09-19T00:49:30;100098.97;;;22.48;100.00
34243;BME280;20504;43.214;27.920;2023-09-19T00:52:03;100040.94;;;22.58;100.00
34243;BME280;20504;43.214;27.920;2023-09-19T00:54:46;100021.19;;;22.43;100.00
34243;BME280;20504;43.214;27.920;2023-09-19T00:57:12;100009.63;;;22.49;100.00
34243;BME280;20504;43.214;27.920;2023-09-19T00:59:37;99967.31;;;22.56;100.00
34243;BME280;20504;43.214;27.920;2023-09-19T01:02:03;99949.56;;;22.32;100.00
34243;BME280;20504;43.214;27.920;2023-09-19T01:06:54;99931.84;;;22.30;100.00
34243;BME280;20504;43.214;27.920;2023-09-19T01:09:20;99949.75;;;22.31;100.00
34243;BME280;20504;43.214;27.920;2023-09-19T01:12:16;99921.38;;;22.20;100.00
34243;BME280;20504;43.214;27.920;2023-09-19T01:17:27;99861.28;;;22.03;100.00
34243;BME280;20504;43.214;27.920;2023-09-19T01:23:11;99837.13;;;21.95;100.00
34243;BME280;20504;43.214;27.920;2023-09-19T01:28:32;99782.19;;;21.88;100.00
34243;BME280;20504;43.214;27.920;2023-09-19T01:31:02;99762.91;;;21.91;100.00
34243;BME280;20504;43.214;27.920;2023-09-19T01:36:19;99713.09;;;22.09;100.00
34243;BME280;20504;43.214;27.920;2023-09-19T01:38:47;99701.25;;;22.10;100.00
34243;BME280;20504;43.214;27.920;2023-09-19T01:41:18;99709.47;;;22.01;100.00
34243;BME280;20504;43.214;27.920;2023-09-19T01:43:49;99704.84;;;21.95;100.00
34243;BME280;20504;43.214;27.920;2023-09-19T01:46:24;99726.66;;;21.79;100.00
34243;BME280;20504;43.214;27.920;2023-09-19T01:51:42;99722.09;;;22.16;100.00
34243;BME280;20504;43.214;27.920;2023-09-19T01:54:16;99710.50;;;22.00;100.00
34243;BME280;20504;43.214;27.920;2023-09-19T01:56:50;99722.59;;;22.04;100.00
34243;BME280;20504;43.214;27.920;2023-09-19T01:59:24;99692.06;;;21.68;100.00
34243;BME280;20504;43.214;27.920;2023-09-19T02:02:03;99665.41;;;21.58;100.00
34243;BME280;20504;43.214;27.920;2023-09-19T02:04:31;99716.84;;;21.93;100.00
34243;BME280;20504;43.214;27.920;2023-09-19T02:06:58;99705.78;;;21.88;100.00
34243;BME280;20504;43.214;27.920;2023-09-19T02:09:24;99712.38;;;21.64;100.00
34243;BME280;20504;43.214;27.920;2023-09-19T02:11:49;99668.28;;;21.57;100.00
34243;BME280;20504;43.214;27.920;2023-09-19T02:14:14;99661.81;;;21.72;100.00
34243;BME280;20504;43.214;27.920;2023-09-19T02:16:40;99628.94;;;21.62;100.00
34243;BME280;20504;43.214;27.920;2023-09-19T02:19:05;99621.03;;;21.61;100.00
34243;BME280;20504;43.214;27.920;2023-09-19T02:23:56;99600.72;;;21.65;100.00
34243;BME280;20504;43.214;27.920;2023-09-19T02:26:21;99600.59;;;21.52;100.00
34243;BME280;20504;43.214;27.920;2023-09-19T02:28:50;99603.72;;;21.55;100.00
34243;BME280;20504;43.214;27.920;2023-09-19T02:31:15;99599.94;;;21.50;100.00
34243;BME280;20504;43.214;27.920;2023-09-19T02:33:41;99535.72;;;21.02;100.00
34243;BME280;20504;43.214;27.920;2023-09-19T02:36:07;99569.47;;;21.56;100.00
34243;BME280;20504;43.214;27.920;2023-09-19T02:38:33;99576.63;;;21.42;100.00
34243;BME280;20504;43.214;27.920;2023-09-19T02:40:59;99565.00;;;21.41;100.00
34243;BME280;20504;43.214;27.920;2023-09-19T02:43:25;99539.06;;;21.40;100.00
34243;BME280;20504;43.214;27.920;2023-09-19T02:45:51;99555.09;;;21.49;100.00
34243;BME280;20504;43.214;27.920;2023-09-19T02:48:20;99560.00;;;21.38;100.00
34243;BME280;20504;43.214;27.920;2023-09-19T02:50:54;99556.88;;;21.20;100.00
34243;BME280;20504;43.214;27.920;2023-09-19T02:53:20;99552.47;;;21.19;100.00
34243;BME280;20504;43.214;27.920;2023-09-19T02:55:49;99549.63;;;21.21;100.00
34243;BME280;20504;43.214;27.920;2023-09-19T02:58:15;99508.06;;;21.15;100.00
34243;BME280;20504;43.214;27.920;2023-09-19T03:00:42;99504.28;;;21.09;100.00
34243;BME280;20504;43.214;27.920;2023-09-19T03:03:12;99444.03;;;20.81;100.00
34243;BME280;20504;43.214;27.920;2023-09-19T03:05:38;99477.63;;;21.00;100.00
34243;BME280;20504;43.214;27.920;2023-09-19T03:10:38;99432.47;;;21.02;100.00
34243;BME280;20504;43.214;27.920;2023-09-19T03:13:04;99396.22;;;21.04;100.00
34243;BME280;20504;43.214;27.920;2023-09-19T03:18:00;99372.25;;;20.95;100.00
34243;BME280;20504;43.214;27.920;2023-09-19T03:20:25;99358.50;;;20.83;100.00
34243;BME280;20504;43.214;27.920;2023-09-19T03:22:52;99351.69;;;20.87;100.00
34243;BME280;20504;43.214;27.920;2023-09-19T03:25:22;99369.72;;;20.86;100.00
34243;BME280;20504;43.214;27.920;2023-09-19T03:27:48;99372.59;;;20.85;100.00
34243;BME280;20504;43.214;27.920;2023-09-19T03:30:14;99375.09;;;20.65;100.00
34243;BME280;20504;43.214;27.920;2023-09-19T03:32:57;99300.41;;;20.38;100.00
34243;BME280;20504;43.214;27.920;2023-09-19T03:35:29;99309.09;;;20.40;100.00
34243;BME280;20504;43.214;27.920;2023-09-19T03:37:54;99293.00;;;20.82;100.00
34243;BME280;20504;43.214;27.920;2023-09-19T03:40:19;99267.06;;;20.81;100.00
34243;BME280;20504;43.214;27.920;2023-09-19T03:42:47;99270.56;;;20.82;100.00
34243;BME280;20504;43.214;27.920;2023-09-19T03:45:13;99257.66;;;20.99;100.00
34243;BME280;20504;43.214;27.920;2023-09-19T03:47:41;99260.34;;;20.99;100.00
34243;BME280;20504;43.214;27.920;2023-09-19T03:50:10;99253.88;;;20.65;100.00
34243;BME280;20504;43.214;27.920;2023-09-19T03:52:57;99264.66;;;20.93;100.00
34243;BME280;20504;43.214;27.920;2023-09-19T03:55:25;99238.00;;;20.77;100.00
34243;BME280;20504;43.214;27.920;2023-09-19T03:57:52;99244.88;;;21.07;100.00
34243;BME280;20504;43.214;27.920;2023-09-19T04:00:18;99260.75;;;20.96;100.00
34243;BME280;20504;43.214;27.920;2023-09-19T04:02:47;99243.56;;;20.69;100.00
34243;BME280;20504;43.214;27.920;2023-09-19T04:05:16;99263.50;;;21.02;100.00
34243;BME280;20504;43.214;27.920;2023-09-19T04:07:44;99244.31;;;20.63;100.00
34243;BME280;20504;43.214;27.920;2023-09-19T04:10:11;99243.91;;;20.87;100.00
34243;BME280;20504;43.214;27.920;2023-09-19T04:12:37;99229.09;;;21.04;100.00
34243;BME280;20504;43.214;27.920;2023-09-19T04:15:05;99230.47;;;20.94;100.00
34243;BME280;20504;43.214;27.920;2023-09-19T04:17:33;99276.09;;;21.23;100.00
34243;BME280;20504;43.214;27.920;2023-09-19T04:19:59;99290.03;;;21.27;100.00
34243;BME280;20504;43.214;27.920;2023-09-19T04:22:26;99290.13;;;21.40;100.00
34243;BME280;20504;43.214;27.920;2023-09-19T04:24:52;99309.22;;;21.45;100.00
34243;BME280;20504;43.214;27.920;2023-09-19T04:27:18;99301.47;;;21.70;100.00
34243;BME280;20504;43.214;27.920;2023-09-19T04:29:44;99359.66;;;21.79;100.00
34243;BME280;20504;43.214;27.920;2023-09-19T04:32:10;99386.66;;;21.79;100.00
34243;BME280;20504;43.214;27.920;2023-09-19T04:34:36;99363.97;;;21.73;100.00
34243;BME280;20504;43.214;27.920;2023-09-19T04:37:02;99378.84;;;21.97;100.00
34243;BME280;20504;43.214;27.920;2023-09-19T04:39:29;99434.22;;;22.15;100.00
34243;BME280;20504;43.214;27.920;2023-09-19T04:41:57;99438.19;;;22.19;100.00
34243;BME280;20504;43.214;27.920;2023-09-19T04:44:24;99447.63;;;22.36;100.00
34243;BME280;20504;43.214;27.920;2023-09-19T04:46:52;99448.09;;;22.53;100.00
34243;BME280;20504;43.214;27.920;2023-09-19T04:49:17;99466.69;;;22.76;100.00
34243;BME280;20504;43.214;27.920;2023-09-19T04:51:45;99502.50;;;22.84;100.00
34243;BME280;20504;43.214;27.920;2023-09-19T04:54:12;99555.38;;;23.00;100.00
34243;BME280;20504;43.214;27.920;2023-09-19T04:56:39;99564.75;;;23.04;100.00
34243;BME280;20504;43.214;27.920;2023-09-19T04:59:06;99565.16;;;23.01;100.00
34243;BME280;20504;43.214;27.920;2023-09-19T05:01:32;99612.69;;;23.30;100.00
34243;BME280;20504;43.214;27.920;2023-09-19T05:04:02;99634.97;;;23.39;100.00
34243;BME280;20504;43.214;27.920;2023-09-19T05:06:30;99641.22;;;23.39;100.00
34243;BME280;20504;43.214;27.920;2023-09-19T05:09:03;99703.44;;;23.33;100.00
34243;BME280;20504;43.214;27.920;2023-09-19T05:11:30;99701.16;;;23.36;100.00
34243;BME280;20504;43.214;27.920;2023-09-19T05:13:56;99722.19;;;23.41;100.00
34243;BME280;20504;43.214;27.920;2023-09-19T05:16:21;99766.78;;;23.45;100.00
34243;BME280;20504;43.214;27.920;2023-09-19T05:18:47;99771.16;;;23.52;100.00
34243;BME280;20504;43.214;27.920;2023-09-19T05:21:14;99764.91;;;23.45;100.00
34243;BME280;20504;43.214;27.920;2023-09-19T05:23:42;99785.38;;;23.61;100.00
34243;BME280;20504;43.214;27.920;2023-09-19T05:26:08;99784.38;;;23.62;100.00
34243;BME280;20504;43.214;27.920;2023-09-19T05:28:35;99757.94;;;23.71;100.00
34243;BME280;20504;43.214;27.920;2023-09-19T05:31:12;99832.59;;;23.93;100.00
34243;BME280;20504;43.214;27.920;2023-09-19T05:33:38;99828.66;;;23.96;100.00
34243;BME280;20504;43.214;27.920;2023-09-19T05:36:03;99885.03;;;24.20;100.00
34243;BME280;20504;43.214;27.920;2023-09-19T05:38:30;99872.53;;;24.26;100.00
34243;BME280;20504;43.214;27.920;2023-09-19T05:40:56;99912.22;;;24.40;100.00
34243;BME280;20504;43.214;27.920;2023-09-19T05:43:22;99966.84;;;24.43;100.00
34243;BME280;20504;43.214;27.920;2023-09-19T05:45:47;100007.94;;;24.54;100.00
34243;BME280;20504;43.214;27.920;2023-09-19T05:48:17;100018.44;;;24.63;100.00
34243;BME280;20504;43.214;27.920;2023-09-19T05:50:43;100032.03;;;24.76;100.00
34243;BME280;20504;43.214;27.920;2023-09-19T05:53:11;100082.97;;;24.81;100.00
34243;BME280;20504;43.214;27.920;2023-09-19T05:55:40;100145.97;;;24.83;100.00
34243;BME280;20504;43.214;27.920;2023-09-19T05:58:05;100158.91;;;24.88;100.00
34243;BME280;20504;43.214;27.920;2023-09-19T06:00:31;100149.44;;;25.05;100.00
34243;BME280;20504;43.214;27.920;2023-09-19T06:02:58;100176.22;;;25.21;100.00
34243;BME280;20504;43.214;27.920;2023-09-19T06:05:25;100187.72;;;25.23;100.00
34243;BME280;20504;43.214;27.920;2023-09-19T06:07:52;100185.88;;;25.30;100.00
34243;BME280;20504;43.214;27.920;2023-09-19T06:10:18;100190.44;;;25.23;100.00
34243;BME280;20504;43.214;27.920;2023-09-19T06:12:46;100215.41;;;25.53;100.00
34243;BME280;20504;43.214;27.920;2023-09-19T06:15:13;100225.22;;;25.54;100.00
34243;BME280;20504;43.214;27.920;2023-09-19T06:17:54;100255.84;;;25.83;100.00
34243;BME280;20504;43.214;27.920;2023-09-19T06:20:25;100273.84;;;25.97;100.00
34243;BME280;20504;43.214;27.920;2023-09-19T06:22:52;100297.19;;;25.78;100.00
34243;BME280;20504;43.214;27.920;2023-09-19T06:25:19;100349.03;;;25.83;100.00
34243;BME280;20504;43.214;27.920;2023-09-19T06:27:46;100360.06;;;25.75;100.00
34243;BME280;20504;43.214;27.920;2023-09-19T06:30:11;100347.22;;;25.97;100.00
34243;BME280;20504;43.214;27.920;2023-09-19T06:32:38;100376.38;;;26.23;100.00
34243;BME280;20504;43.214;27.920;2023-09-19T06:35:05;100368.94;;;26.45;100.00
34243;BME280;20504;43.214;27.920;2023-09-19T06:37:33;100415.81;;;26.60;100.00
34243;BME280;20504;43.214;27.920;2023-09-19T06:40:06;100435.91;;;26.59;100.00
34243;BME280;20504;43.214;27.920;2023-09-19T06:42:35;100481.53;;;26.64;100.00
34243;BME280;20504;43.214;27.920;2023-09-19T06:45:04;100503.75;;;26.80;100.00
34243;BME280;20504;43.214;27.920;2023-09-19T06:47:29;100520.38;;;27.05;100.00
34243;BME280;20504;43.214;27.920;2023-09-19T06:49:55;100561.47;;;27.37;100.00
34243;BME280;20504;43.214;27.920;2023-09-19T06:52:20;100606.31;;;27.34;100.00
34243;BME280;20504;43.214;27.920;2023-09-19T06:54:48;100604.38;;;27.22;100.00
34243;BME280;20504;43.214;27.920;2023-09-19T06:57:16;100663.03;;;27.24;100.00
34243;BME280;20504;43.214;27.920;2023-09-19T06:59:42;100678.53;;;27.30;100.00
34243;BME280;20504;43.214;27.920;2023-09-19T07:02:07;100662.97;;;27.11;100.00
34243;BME280;20504;43.214;27.920;2023-09-19T07:04:33;100666.72;;;27.10;100.00
34243;BME280;20504;43.214;27.920;2023-09-19T07:06:59;100668.69;;;26.88;100.00
34243;BME280;20504;43.214;27.920;2023-09-19T07:09:48;100637.38;;;26.99;100.00
34243;BME280;20504;43.214;27.920;2023-09-19T07:12:16;100587.28;;;26.86;100.00
34243;BME280;20504;43.214;27.920;2023-09-19T07:14:42;100599.78;;;27.22;100.00
34243;BME280;20504;43.214;27.920;2023-09-19T07:17:08;100656.69;;;27.78;100.00
34243;BME280;20504;43.214;27.920;2023-09-19T07:19:54;100759.94;;;28.27;100.00
34243;BME280;20504;43.214;27.920;2023-09-19T07:22:21;100802.75;;;28.47;100.00
34243;BME280;20504;43.214;27.920;2023-09-19T07:24:49;100879.75;;;28.62;100.00
34243;BME280;20504;43.214;27.920;2023-09-19T07:27:16;100885.88;;;28.64;100.00
34243;BME280;20504;43.214;27.920;2023-09-19T07:29:42;100957.09;;;28.89;100.00
34243;BME280;20504;43.214;27.920;2023-09-19T07:32:30;101005.81;;;28.99;100.00
34243;BME280;20504;43.214;27.920;2023-09-19T07:35:10;101036.94;;;29.11;100.00
34243;BME280;20504;43.214;27.920;2023-09-19T07:37:35;101053.72;;;29.01;100.00
34243;BME280;20504;43.214;27.920;2023-09-19T07:40:05;101013.59;;;29.08;100.00
34243;BME280;20504;43.214;27.920;2023-09-19T07:42:35;101055.47;;;29.68;100.00
34243;BME280;20504;43.214;27.920;2023-09-19T07:45:02;101082.97;;;29.93;100.00
34243;BME280;20504;43.214;27.920;2023-09-19T07:47:29;101128.63;;;30.26;100.00
34243;BME280;20504;43.214;27.920;2023-09-19T07:49:56;101197.03;;;30.32;100.00
34243;BME280;20504;43.214;27.920;2023-09-19T07:52:22;101200.38;;;29.95;100.00
34243;BME280;20504;43.214;27.920;2023-09-19T07:54:48;101230.66;;;30.46;100.00
34243;BME280;20504;43.214;27.920;2023-09-19T07:57:14;101264.78;;;30.43;100.00
34243;BME280;20504;43.214;27.920;2023-09-19T07:59:41;101221.63;;;30.26;100.00
34243;BME280;20504;43.214;27.920;2023-09-19T08:02:11;101278.06;;;30.53;100.00
34243;BME280;20504;43.214;27.920;2023-09-19T08:04:45;101337.81;;;30.43;100.00
34243;BME280;20504;43.214;27.920;2023-09-19T08:07:15;101316.06;;;29.95;100.00
34243;BME280;20504;43.214;27.920;2023-09-19T08:09:42;101264.88;;;29.63;100.00
34243;BME280;20504;43.214;27.920;2023-09-19T08:12:28;101275.66;;;29.77;100.00
34243;BME280;20504;43.214;27.920;2023-09-19T08:14:59;101330.59;;;29.96;100.00
34243;BME280;20504;43.214;27.920;2023-09-19T08:17:24;101318.28;;;29.65;100.00
34243;BME280;20504;43.214;27.920;2023-09-19T08:19:50;101278.97;;;29.66;100.00
34243;BME280;20504;43.214;27.920;2023-09-19T08:22:19;101290.25;;;29.50;100.00
34243;BME280;20504;43.214;27.920;2023-09-19T08:24:48;101386.06;;;29.83;100.00
34243;BME280;20504;43.214;27.920;2023-09-19T08:27:15;101395.97;;;29.84;100.00
34243;BME280;20504;43.214;27.920;2023-09-19T08:29:44;101317.47;;;29.71;100.00
34243;BME280;20504;43.214;27.920;2023-09-19T08:32:10;101362.09;;;29.85;100.00
34243;BME280;20504;43.214;27.920;2023-09-19T08:34:39;101321.06;;;29.78;100.00
34243;BME280;20504;43.214;27.920;2023-09-19T08:37:08;101276.31;;;29.99;100.00
34243;BME280;20504;43.214;27.920;2023-09-19T08:39:40;101332.75;;;30.27;100.00
34243;BME280;20504;43.214;27.920;2023-09-19T08:42:18;101328.28;;;29.99;100.00
34243;BME280;20504;43.214;27.920;2023-09-19T08:44:48;101369.53;;;30.04;100.00
34243;BME280;20504;43.214;27.920;2023-09-19T08:47:21;101332.22;;;29.77;100.00
34243;BME280;20504;43.214;27.920;2023-09-19T08:50:11;101325.53;;;29.99;100.00
34243;BME280;20504;43.214;27.920;2023-09-19T08:52:43;101362.88;;;29.66;100.00
34243;BME280;20504;43.214;27.920;2023-09-19T08:55:13;101347.00;;;29.96;100.00
34243;BME280;20504;43.214;27.920;2023-09-19T08:57:49;101347.63;;;29.98;100.00
34243;BME280;20504;43.214;27.920;2023-09-19T09:00:15;101325.97;;;30.03;100.00
34243;BME280;20504;43.214;27.920;2023-09-19T09:02:49;101333.81;;;30.45;100.00
34243;BME280;20504;43.214;27.920;2023-09-19T09:05:17;101302.06;;;30.31;100.00
34243;BME280;20504;43.214;27.920;2023-09-19T09:07:52;101281.22;;;30.17;100.00
34243;BME280;20504;43.214;27.920;2023-09-19T09:10:22;101305.41;;;30.33;100.00
34243;BME280;20504;43.214;27.920;2023-09-19T09:12:55;101358.50;;;30.92;100.00
34243;BME280;20504;43.214;27.920;2023-09-19T09:15:22;101409.91;;;30.70;100.00
34243;BME280;20504;43.214;27.920;2023-09-19T09:17:50;101432.19;;;30.67;100.00
34243;BME280;20504;43.214;27.920;2023-09-19T09:20:20;101411.59;;;30.71;100.00
34243;BME280;20504;43.214;27.920;2023-09-19T09:22:57;101436.13;;;30.44;100.00
34243;BME280;20504;43.214;27.920;2023-09-19T09:25:51;101445.59;;;30.49;100.00
34243;BME280;20504;43.214;27.920;2023-09-19T09:28:45;101385.81;;;30.32;100.00
34243;BME280;20504;43.214;27.920;2023-09-19T09:31:24;101376.28;;;30.08;100.00
34243;BME280;20504;43.214;27.920;2023-09-19T09:33:55;101321.78;;;30.07;100.00
34243;BME280;20504;43.214;27.920;2023-09-19T09:36:38;101329.22;;;30.66;100.00
34243;BME280;20504;43.214;27.920;2023-09-19T09:39:09;101329.84;;;30.55;100.00
34243;BME280;20504;43.214;27.920;2023-09-19T09:41:51;101300.38;;;30.70;100.00
34243;BME280;20504;43.214;27.920;2023-09-19T09:47:15;101308.34;;;30.58;100.00
34243;BME280;20504;43.214;27.920;2023-09-19T09:51:03;101344.31;;;31.21;100.00
34243;BME280;20504;43.214;27.920;2023-09-19T09:53:51;101335.47;;;31.13;100.00
34243;BME280;20504;43.214;27.920;2023-09-19T09:56:59;101250.91;;;30.38;100.00
34243;BME280;20504;43.214;27.920;2023-09-19T10:04:26;101357.41;;;30.99;100.00
34243;BME280;20504;43.214;27.920;2023-09-19T10:10:35;101249.41;;;30.42;100.00
34243;BME280;20504;43.214;27.920;2023-09-19T10:14:09;101329.16;;;31.25;100.00
34243;BME280;20504;43.214;27.920;2023-09-19T10:16:46;101333.88;;;31.56;100.00
34243;BME280;20504;43.214;27.920;2023-09-19T12:13:57;101422.13;;;33.97;100.00
34243;BME280;20504;43.214;27.920;2023-09-19T12:16:56;101341.28;;;33.07;100.00
34243;BME280;20504;43.214;27.920;2023-09-19T12:19:51;101320.00;;;33.21;100.00
34243;BME280;20504;43.214;27.920;2023-09-19T12:22:46;101267.28;;;33.12;100.00
34243;BME280;20504;43.214;27.920;2023-09-19T12:25:24;101344.22;;;33.67;100.00
34243;BME280;20504;43.214;27.920;2023-09-19T12:28:59;101358.09;;;33.72;100.00
34243;BME280;20504;43.214;27.920;2023-09-19T12:37:56;101345.31;;;34.26;100.00
34243;BME280;20504;43.214;27.920;2023-09-19T12:40:22;101385.25;;;34.47;100.00
34243;BME280;20504;43.214;27.920;2023-09-19T12:43:13;101349.84;;;34.32;100.00
34243;BME280;20504;43.214;27.920;2023-09-19T12:45:50;101301.47;;;33.53;100.00
34243;BME280;20504;43.214;27.920;2023-09-19T12:48:27;101332.53;;;33.83;100.00
34243;BME280;20504;43.214;27.920;2023-09-19T12:54:11;101257.19;;;33.06;100.00
34243;BME280;20504;43.214;27.920;2023-09-19T12:57:28;101270.69;;;33.07;100.00
34243;BME280;20504;43.214;27.920;2023-09-19T13:15:16;101442.72;;;36.47;100.00
34243;BME280;20504;43.214;27.920;2023-09-19T13:18:10;101453.59;;;36.54;100.00
34243;BME280;20504;43.214;27.920;2023-09-19T13:23:51;101422.56;;;36.63;100.00
34243;BME280;20504;43.214;27.920;2023-09-19T13:26:21;101510.03;;;36.29;100.00
34243;BME280;20504;43.214;27.920;2023-09-19T13:28:58;101473.25;;;34.95;100.00
34243;BME280;20504;43.214;27.920;2023-09-19T13:31:48;101468.75;;;35.71;100.00
34243;BME280;20504;43.214;27.920;2023-09-19T13:34:20;101507.47;;;36.39;100.00
34243;BME280;20504;43.214;27.920;2023-09-19T13:37:15;101523.84;;;36.58;100.00
34243;BME280;20504;43.214;27.920;2023-09-19T13:39:42;101530.63;;;35.87;100.00
34243;BME280;20504;43.214;27.920;2023-09-19T13:42:15;101481.94;;;35.34;100.00
34243;BME280;20504;43.214;27.920;2023-09-19T13:44:45;101516.94;;;36.03;100.00
34243;BME280;20504;43.214;27.920;2023-09-19T13:47:13;101587.94;;;36.83;100.00
34243;BME280;20504;43.214;27.920;2023-09-19T13:49:45;101632.56;;;37.04;100.00
34243;BME280;20504;43.214;27.920;2023-09-19T13:52:22;101627.19;;;37.42;100.00
34243;BME280;20504;43.214;27.920;2023-09-19T13:55:02;101678.28;;;37.85;100.00
34243;BME280;20504;43.214;27.920;2023-09-19T13:57:41;101664.88;;;37.77;100.00
34243;BME280;20504;43.214;27.920;2023-09-19T14:02:58;101719.00;;;38.78;100.00
34243;BME280;20504;43.214;27.920;2023-09-19T14:05:47;101656.84;;;38.31;100.00
34243;BME280;20504;43.214;27.920;2023-09-19T14:08:22;101708.22;;;38.22;100.00
34243;BME280;20504;43.214;27.920;2023-09-19T14:10:58;101613.84;;;37.39;100.00
34243;BME280;20504;43.214;27.920;2023-09-19T14:13:33;101646.81;;;36.72;100.00
34243;BME280;20504;43.214;27.920;2023-09-19T14:16:09;101620.78;;;36.68;100.00
34243;BME280;20504;43.214;27.920;2023-09-19T14:21:22;101491.94;;;34.33;100.00
34243;BME280;20504;43.214;27.920;2023-09-19T14:23:55;101448.59;;;34.28;100.00
34243;BME280;20504;43.214;27.920;2023-09-19T14:26:21;101520.59;;;34.92;100.00
34243;BME280;20504;43.214;27.920;2023-09-19T14:29:03;101412.41;;;34.43;100.00
34243;BME280;20504;43.214;27.920;2023-09-19T14:31:40;101480.59;;;35.83;100.00
34243;BME280;20504;43.214;27.920;2023-09-19T14:34:07;101536.22;;;36.27;100.00
34243;BME280;20504;43.214;27.920;2023-09-19T14:40:02;101561.19;;;36.60;100.00
34243;BME280;20504;43.214;27.920;2023-09-19T14:42:46;101551.28;;;35.96;100.00
34243;BME280;20504;43.214;27.920;2023-09-19T14:51:29;101414.47;;;33.99;100.00
34243;BME280;20504;43.214;27.920;2023-09-19T14:54:26;101390.47;;;33.15;100.00
34243;BME280;20504;43.214;27.920;2023-09-19T14:56:56;101345.34;;;32.30;100.00
34243;BME280;20504;43.214;27.920;2023-09-19T14:59:50;101361.25;;;32.71;100.00
34243;BME280;20504;43.214;27.920;2023-09-19T15:03:08;101299.53;;;32.98;100.00
34243;BME280;20504;43.214;27.920;2023-09-19T15:06:03;101383.56;;;33.86;100.00
34243;BME280;20504;43.214;27.920;2023-09-19T15:08:39;101352.50;;;33.49;100.00
34243;BME280;20504;43.214;27.920;2023-09-19T15:11:33;101336.19;;;32.92;100.00
34243;BME280;20504;43.214;27.920;2023-09-19T15:31:08;101013.34;;;30.02;100.00
34243;BME280;20504;43.214;27.920;2023-09-19T15:33:40;100934.81;;;29.51;100.00
34243;BME280;20504;43.214;27.920;2023-09-19T15:36:11;100875.78;;;29.17;100.00
34243;BME280;20504;43.214;27.920;2023-09-19T15:39:03;100815.97;;;28.70;100.00
34243;BME280;20504;43.214;27.920;2023-09-19T15:41:44;100772.50;;;28.42;100.00
34243;BME280;20504;43.214;27.920;2023-09-19T15:44:32;100688.38;;;28.12;100.00
34243;BME280;20504;43.214;27.920;2023-09-19T15:47:13;100615.63;;;27.93;100.00
34243;BME280;20504;43.214;27.920;2023-09-19T15:50:16;100641.63;;;28.28;100.00
34243;BME280;20504;43.214;27.920;2023-09-19T15:55:23;100593.78;;;27.86;100.00
34243;BME280;20504;43.214;27.920;2023-09-19T15:58:11;100578.91;;;27.82;100.00
34243;BME280;20504;43.214;27.920;2023-09-19T16:00:52;100515.84;;;27.72;100.00
34243;BME280;20504;43.214;27.920;2023-09-19T16:03:26;100512.88;;;27.40;100.00
34243;BME280;20504;43.214;27.920;2023-09-19T16:05:55;100512.06;;;27.33;100.00
34243;BME280;20504;43.214;27.920;2023-09-19T16:08:33;100446.00;;;26.92;100.00
34243;BME280;20504;43.214;27.920;2023-09-19T16:11:01;100395.97;;;26.79;100.00
34243;BME280;20504;43.214;27.920;2023-09-19T16:13:28;100462.19;;;27.26;100.00
34243;BME280;20504;43.214;27.920;2023-09-19T16:15:58;100419.03;;;27.10;100.00
34243;BME280;20504;43.214;27.920;2023-09-19T16:18:24;100393.03;;;26.88;100.00
34243;BME280;20504;43.214;27.920;2023-09-19T16:20:51;100429.91;;;27.30;100.00
34243;BME280;20504;43.214;27.920;2023-09-19T16:23:27;100435.16;;;27.05;100.00
34243;BME280;20504;43.214;27.920;2023-09-19T16:26:04;100363.09;;;26.74;100.00
34243;BME280;20504;43.214;27.920;2023-09-19T16:28:31;100410.41;;;26.86;100.00
34243;BME280;20504;43.214;27.920;2023-09-19T16:31:08;100399.75;;;26.85;100.00
34243;BME280;20504;43.214;27.920;2023-09-19T16:33:58;100381.75;;;26.91;100.00
34243;BME280;20504;43.214;27.920;2023-09-19T16:36:26;100342.19;;;26.81;100.00